Dailey, West Virginia
Current Conditions -  °F | °C
As of 4:51 AM on Saturday 01 Nov 2014 (Local Time) from KEKN Reporting Station
Light Rain Light Rain  
Wind Chill: 38°   Ceiling: 800
Heat Index: 38°   Visibility: 9mi
Dew Point: 37°   Wind: 0mph
Humidity: 97%   Direction: NA
Pressure: 29.82"   Gusts: NA
Location:  38.8°N, 79.9°W
Report Text: KEKN 010851Z AUTO 00000KT 9SM -RA OVC008 03/03 A2982 RMK AO2 RAB15 CIG 004V010 SLP114 P0000 60001 T00330028 55000 TSNO
Loading
Personal Weather Stations






























Interactive Weather Map
Tropical Storm Tracking
New forecast layout! Learn more

10-Day Weather Forecast

Advertisements
Track Severe Weather on mobile